createdAt,value
2022-10-15T00:01:47.412Z,24.50
2022-10-15T00:04:15.822Z,24.40
2022-10-15T00:06:44.257Z,24.50
2022-10-15T00:09:12.646Z,24.30
2022-10-15T00:11:41.221Z,24.30
2022-10-15T00:14:09.630Z,24.30
2022-10-15T00:16:38.054Z,24.20
2022-10-15T00:19:06.417Z,24.30
2022-10-15T00:21:34.767Z,24.20
2022-10-15T00:24:03.306Z,24.10
2022-10-15T00:26:32.448Z,24.10
2022-10-15T00:29:03.455Z,24.10
2022-10-15T00:31:33.466Z,24.00
2022-10-15T00:34:03.621Z,23.90
2022-10-15T00:36:35.294Z,23.90
2022-10-15T00:39:06.157Z,23.80
2022-10-15T00:41:41.110Z,23.80
2022-10-15T00:44:30.835Z,23.70
2022-10-15T00:47:14.981Z,23.70
2022-10-15T00:50:11.575Z,23.60
2022-10-15T00:53:03.809Z,23.40
2022-10-15T00:55:35.849Z,23.30
2022-10-15T00:58:16.727Z,23.20
2022-10-15T01:00:45.272Z,23.00
2022-10-15T01:03:13.931Z,22.90
2022-10-15T01:05:44.939Z,22.80
2022-10-15T01:08:13.355Z,22.60
2022-10-15T01:11:00.292Z,22.50
2022-10-15T01:13:50.637Z,22.30
2022-10-15T01:16:41.373Z,22.20
2022-10-15T01:19:29.737Z,22.20
2022-10-15T01:22:22.583Z,22.00
2022-10-15T01:25:13.132Z,21.80
2022-10-15T01:27:47.256Z,21.80
2022-10-15T01:30:39.378Z,21.60
2022-10-15T01:33:29.500Z,21.50
2022-10-15T01:36:10.901Z,21.30
2022-10-15T01:39:00.668Z,21.20
2022-10-15T01:41:44.191Z,21.00
2022-10-15T01:44:20.947Z,20.90
2022-10-15T01:47:15.459Z,20.80
2022-10-15T01:49:46.943Z,20.70
2022-10-15T01:52:20.649Z,20.40
2022-10-15T01:54:51.263Z,20.20
2022-10-15T01:57:22.152Z,20.10
2022-10-15T01:59:51.241Z,20.00
2022-10-15T02:02:19.734Z,19.80
2022-10-15T02:04:48.111Z,19.50
2022-10-15T02:07:38.676Z,19.60
2022-10-15T02:10:10.969Z,19.40
2022-10-15T02:13:07.106Z,19.40
2022-10-15T02:15:56.965Z,19.30
2022-10-15T02:18:47.031Z,19.20
2022-10-15T02:21:48.423Z,19.00
2022-10-15T02:24:34.636Z,19.00
2022-10-15T02:27:04.374Z,18.80
2022-10-15T02:29:36.243Z,18.70
2022-10-15T02:32:07.449Z,18.70
2022-10-15T02:34:36.849Z,18.60
2022-10-15T02:37:07.237Z,18.60
2022-10-15T02:39:36.143Z,18.50
2022-10-15T02:42:05.242Z,18.40
2022-10-15T02:44:34.175Z,18.30
2022-10-15T02:47:03.005Z,18.30
2022-10-15T02:49:31.359Z,18.20
2022-10-15T02:52:00.132Z,18.20
2022-10-15T02:54:28.597Z,18.10
2022-10-15T02:56:57.004Z,18.10
2022-10-15T02:59:25.482Z,17.90
2022-10-15T03:01:53.875Z,17.90
2022-10-15T03:04:22.344Z,17.80
2022-10-15T03:06:51.598Z,17.80
2022-10-15T03:09:20.358Z,17.70
2022-10-15T03:11:48.707Z,17.70
2022-10-15T03:14:17.332Z,17.70
2022-10-15T03:16:45.773Z,17.70
2022-10-15T03:19:14.212Z,17.70
2022-10-15T03:21:42.942Z,17.60
2022-10-15T03:24:11.355Z,17.60
2022-10-15T03:26:39.783Z,17.50
2022-10-15T03:29:08.606Z,17.50
2022-10-15T03:31:36.986Z,17.40
2022-10-15T03:34:05.506Z,17.40
2022-10-15T03:36:33.913Z,17.40
2022-10-15T03:39:02.388Z,17.30
2022-10-15T03:41:30.825Z,17.30
2022-10-15T03:44:03.818Z,17.30
2022-10-15T03:46:33.046Z,17.30
2022-10-15T03:49:01.950Z,17.40
2022-10-15T03:51:31.703Z,17.40
2022-10-15T03:54:00.537Z,17.40
2022-10-15T03:56:28.952Z,17.40
2022-10-15T03:58:57.662Z,17.40
2022-10-15T04:01:27.532Z,17.40
2022-10-15T04:03:55.956Z,17.40
2022-10-15T04:06:24.526Z,17.40
2022-10-15T04:11:21.699Z,17.40
2022-10-15T04:13:51.360Z,17.40
2022-10-15T04:16:19.865Z,17.30
2022-10-15T04:18:48.209Z,17.30
2022-10-15T04:21:16.827Z,17.20
2022-10-15T04:23:45.273Z,17.20
2022-10-15T04:26:13.611Z,17.20
2022-10-15T04:28:42.217Z,17.20
2022-10-15T04:31:10.733Z,17.20
2022-10-15T04:33:39.113Z,17.20
2022-10-15T04:36:13.196Z,17.20
2022-10-15T04:38:41.806Z,17.20
2022-10-15T04:41:12.538Z,17.20
2022-10-15T04:43:41.594Z,17.20
2022-10-15T04:46:10.438Z,17.20
2022-10-15T04:48:42.930Z,17.20
2022-10-15T04:51:17.400Z,17.20
2022-10-15T04:53:46.534Z,17.10
2022-10-15T04:56:18.738Z,17.10
2022-10-15T04:58:48.572Z,17.00
2022-10-15T05:01:20.013Z,16.90
2022-10-15T05:03:49.819Z,16.90
2022-10-15T05:06:21.682Z,16.80
2022-10-15T05:08:51.068Z,16.70
2022-10-15T05:11:28.631Z,16.50
2022-10-15T05:13:58.647Z,16.40
2022-10-15T05:16:30.078Z,16.50
2022-10-15T05:19:00.782Z,16.40
2022-10-15T05:21:30.133Z,16.30
2022-10-15T05:23:59.558Z,16.20
2022-10-15T05:26:29.969Z,16.10
2022-10-15T05:29:00.384Z,16.10
2022-10-15T05:31:31.212Z,16.00
2022-10-15T05:33:59.988Z,15.90
2022-10-15T05:36:30.874Z,15.80
2022-10-15T05:39:01.436Z,15.90
2022-10-15T05:41:31.174Z,15.90
2022-10-15T05:44:00.384Z,15.90
2022-10-15T05:46:29.054Z,15.70
2022-10-15T05:48:58.859Z,15.60
2022-10-15T05:51:29.033Z,15.50
2022-10-15T05:53:58.791Z,15.50
2022-10-15T05:56:28.341Z,15.50
2022-10-15T05:58:57.093Z,15.40
2022-10-15T06:01:25.526Z,15.40
2022-10-15T06:03:53.900Z,15.40
2022-10-15T06:06:27.428Z,15.40
2022-10-15T06:08:56.756Z,15.30
2022-10-15T06:11:25.140Z,15.30
2022-10-15T06:13:53.637Z,15.20
2022-10-15T06:16:23.979Z,15.10
2022-10-15T06:18:55.694Z,15.20
2022-10-15T06:21:24.143Z,15.30
2022-10-15T06:23:52.587Z,15.10
2022-10-15T06:26:21.036Z,15.00
2022-10-15T06:28:49.502Z,14.90
2022-10-15T06:31:18.050Z,15.00
2022-10-15T06:33:46.491Z,15.00
2022-10-15T06:36:14.852Z,15.00
2022-10-15T06:38:46.653Z,14.90
2022-10-15T06:41:15.211Z,14.90
2022-10-15T06:43:43.861Z,14.80
2022-10-15T06:46:12.763Z,14.70
2022-10-15T06:48:41.165Z,14.70
2022-10-15T06:51:09.713Z,14.70
2022-10-15T06:53:41.281Z,14.60
2022-10-15T06:56:10.052Z,14.60
2022-10-15T06:58:38.422Z,14.70
2022-10-15T07:01:07.673Z,14.60
2022-10-15T07:03:36.943Z,14.50
2022-10-15T07:06:07.158Z,14.40
2022-10-15T07:08:36.473Z,14.50
2022-10-15T07:11:06.969Z,14.50
2022-10-15T07:13:35.427Z,14.40
2022-10-15T07:16:08.413Z,14.30
2022-10-15T07:18:37.838Z,14.40
2022-10-15T07:21:08.117Z,14.40
2022-10-15T07:23:36.914Z,14.40
2022-10-15T07:26:05.373Z,14.40
2022-10-15T07:28:33.840Z,14.40
2022-10-15T07:31:04.838Z,14.30
2022-10-15T07:33:35.388Z,14.30
2022-10-15T07:36:08.914Z,14.20
2022-10-15T07:38:38.034Z,14.20
2022-10-15T07:41:07.446Z,14.20
2022-10-15T07:43:37.452Z,14.20
2022-10-15T07:46:06.308Z,14.10
2022-10-15T07:48:34.838Z,14.10
2022-10-15T07:51:08.457Z,14.00
2022-10-15T07:53:37.208Z,13.90
2022-10-15T07:56:11.073Z,13.90
2022-10-15T07:58:40.303Z,13.90
2022-10-15T08:01:11.041Z,13.90
2022-10-15T08:03:39.879Z,13.90
2022-10-15T08:06:09.421Z,13.90
2022-10-15T08:08:38.513Z,13.90
2022-10-15T08:11:15.078Z,13.90
2022-10-15T08:13:44.798Z,13.90
2022-10-15T08:16:15.043Z,13.90
2022-10-15T08:18:43.603Z,13.80
2022-10-15T08:21:13.104Z,13.80
2022-10-15T08:23:41.552Z,13.80
2022-10-15T08:26:10.194Z,13.70
2022-10-15T08:28:38.681Z,13.70
2022-10-15T08:31:07.523Z,13.80
2022-10-15T08:33:37.279Z,13.80
2022-10-15T08:36:09.212Z,13.70
2022-10-15T08:38:37.622Z,13.60
2022-10-15T08:41:19.461Z,13.60
2022-10-15T08:43:49.183Z,13.70
2022-10-15T08:46:32.861Z,13.50
2022-10-15T08:49:02.717Z,13.60
2022-10-15T08:51:47.531Z,13.30
2022-10-15T08:54:19.387Z,13.30
2022-10-15T08:56:54.979Z,13.30
2022-10-15T08:59:54.596Z,13.30
2022-10-15T09:02:52.658Z,13.40
2022-10-15T09:05:34.757Z,13.30
2022-10-15T09:08:11.662Z,13.30
2022-10-15T09:10:53.979Z,13.30
2022-10-15T09:13:44.357Z,13.10
2022-10-15T09:16:19.059Z,13.10
2022-10-15T09:18:53.305Z,13.10
2022-10-15T09:21:25.954Z,13.20
2022-10-15T09:23:59.693Z,13.10
2022-10-15T09:26:58.272Z,13.00
2022-10-15T09:29:41.394Z,13.00
2022-10-15T09:32:32.235Z,12.90
2022-10-15T09:35:26.725Z,12.90
2022-10-15T09:38:07.169Z,13.00
2022-10-15T09:40:58.533Z,12.90
2022-10-15T09:43:38.608Z,12.70
2022-10-15T09:46:07.881Z,12.80
2022-10-15T09:48:48.714Z,12.80
2022-10-15T09:51:28.737Z,12.80
2022-10-15T09:54:11.855Z,12.90
2022-10-15T09:56:48.365Z,12.70
2022-10-15T09:59:19.256Z,12.70
2022-10-15T10:02:03.755Z,12.70
2022-10-15T10:04:34.445Z,12.70
2022-10-15T10:07:10.950Z,12.70
2022-10-15T10:09:51.626Z,12.70
2022-10-15T10:12:42.328Z,12.60
2022-10-15T10:15:32.923Z,12.60
2022-10-15T10:18:01.687Z,12.60
2022-10-15T10:20:31.820Z,12.50
2022-10-15T10:23:02.834Z,12.50
2022-10-15T10:25:33.315Z,12.40
2022-10-15T10:28:04.846Z,12.50
2022-10-15T10:30:48.829Z,12.50
2022-10-15T10:33:25.608Z,12.40
2022-10-15T10:35:54.442Z,12.50
2022-10-15T10:38:34.675Z,12.50
2022-10-15T10:41:11.624Z,12.40
2022-10-15T10:43:55.057Z,12.50
2022-10-15T10:46:26.787Z,12.50
2022-10-15T10:48:55.733Z,12.50
2022-10-15T10:51:27.692Z,12.50
2022-10-15T10:53:56.235Z,12.60
2022-10-15T10:56:32.149Z,12.50
2022-10-15T10:59:23.762Z,12.40
2022-10-15T11:01:52.929Z,12.50
2022-10-15T11:04:34.048Z,12.50
2022-10-15T11:07:08.330Z,12.40
2022-10-15T11:10:09.062Z,12.40
2022-10-15T11:12:55.605Z,12.40
2022-10-15T11:15:32.467Z,12.20
2022-10-15T11:18:22.887Z,12.30
2022-10-15T11:21:14.149Z,12.20
2022-10-15T11:23:45.610Z,12.20
2022-10-15T11:26:52.111Z,12.30
2022-10-15T11:29:48.270Z,12.20
2022-10-15T11:32:47.840Z,12.20
2022-10-15T11:35:40.815Z,12.10
2022-10-15T11:38:16.043Z,12.00
2022-10-15T11:41:12.251Z,12.10
2022-10-15T11:43:53.739Z,12.00
2022-10-15T11:46:44.134Z,12.10
2022-10-15T11:49:32.845Z,12.00
2022-10-15T11:52:22.919Z,12.00
2022-10-15T11:55:02.549Z,12.10
2022-10-15T11:57:34.830Z,12.00
2022-10-15T12:00:31.741Z,11.90
2022-10-15T12:03:25.086Z,12.00
2022-10-15T12:06:01.769Z,12.00
2022-10-15T12:08:35.250Z,12.00
2022-10-15T12:11:38.746Z,12.00
2022-10-15T12:14:39.532Z,12.00
2022-10-15T12:17:36.714Z,12.00
2022-10-15T12:20:17.154Z,12.00
2022-10-15T12:22:48.569Z,12.00
2022-10-15T12:25:37.022Z,12.10
2022-10-15T12:28:09.785Z,12.10
2022-10-15T12:30:38.696Z,12.00
2022-10-15T12:33:26.771Z,12.00
2022-10-15T12:35:57.904Z,12.00
2022-10-15T12:38:35.340Z,11.80
2022-10-15T12:41:21.399Z,11.80
2022-10-15T12:44:04.866Z,11.70
2022-10-15T12:46:39.706Z,11.70
2022-10-15T12:49:31.706Z,11.60
2022-10-15T12:52:01.546Z,11.50
2022-10-15T12:54:39.013Z,11.50
2022-10-15T12:57:32.077Z,11.50
2022-10-15T13:00:02.253Z,11.50
2022-10-15T13:02:46.900Z,11.40
2022-10-15T13:05:35.413Z,11.50
2022-10-15T13:08:08.182Z,11.50
2022-10-15T13:10:42.819Z,11.20
2022-10-15T13:13:17.921Z,11.30
2022-10-15T13:15:56.101Z,11.40
2022-10-15T13:18:27.218Z,11.40
2022-10-15T13:20:57.198Z,11.40
2022-10-15T13:23:31.833Z,11.60
2022-10-15T13:26:20.630Z,11.60
2022-10-15T13:28:51.347Z,11.60
2022-10-15T13:31:30.491Z,11.70
2022-10-15T13:34:19.318Z,11.60
2022-10-15T13:36:47.867Z,11.60
2022-10-15T13:42:18.218Z,11.40
2022-10-15T13:44:59.090Z,11.60
2022-10-15T13:47:38.906Z,11.60
2022-10-15T13:50:21.252Z,11.60
2022-10-15T13:52:52.021Z,11.60
2022-10-15T13:55:32.210Z,11.60
2022-10-15T13:58:22.327Z,11.50
2022-10-15T14:01:03.169Z,11.60
2022-10-15T14:03:34.427Z,11.60
2022-10-15T14:06:28.400Z,11.70
2022-10-15T14:09:02.951Z,11.70
2022-10-15T14:11:31.849Z,11.70
2022-10-15T14:14:00.793Z,11.70
2022-10-15T14:16:43.405Z,11.60
2022-10-15T14:19:17.589Z,11.60
2022-10-15T14:21:49.366Z,11.60
2022-10-15T14:24:23.340Z,11.60
2022-10-15T14:26:52.130Z,11.70
2022-10-15T14:29:27.868Z,11.70
2022-10-15T14:31:57.174Z,11.80
2022-10-15T14:34:39.309Z,11.80
2022-10-15T14:37:38.498Z,11.80
2022-10-15T14:40:13.238Z,11.90
2022-10-15T14:42:47.737Z,11.80
2022-10-15T14:45:27.931Z,11.80
2022-10-15T14:48:10.109Z,11.90
2022-10-15T14:50:43.466Z,11.90
2022-10-15T14:53:26.353Z,11.90
2022-10-15T14:55:59.872Z,12.00
2022-10-15T14:58:30.340Z,12.00
2022-10-15T15:01:05.166Z,12.10
2022-10-15T15:03:42.272Z,12.00
2022-10-15T15:06:11.045Z,12.10
2022-10-15T15:08:39.407Z,12.00
2022-10-15T15:11:11.689Z,12.20
2022-10-15T15:13:43.114Z,12.20
2022-10-15T15:16:14.503Z,12.20
2022-10-15T15:18:44.740Z,12.20
2022-10-15T15:21:17.519Z,12.40
2022-10-15T15:23:46.838Z,12.30
2022-10-15T15:26:15.209Z,12.40
2022-10-15T15:28:43.646Z,12.60
2022-10-15T15:31:18.670Z,12.60
2022-10-15T15:33:47.293Z,12.70
2022-10-15T15:36:22.489Z,12.90
2022-10-15T15:38:52.645Z,12.90
2022-10-15T15:41:23.410Z,13.10
2022-10-15T15:43:52.715Z,13.20
2022-10-15T15:46:21.179Z,13.30
2022-10-15T15:48:49.556Z,13.50
2022-10-15T15:51:22.737Z,13.60
2022-10-15T15:53:51.729Z,13.80
2022-10-15T15:56:20.389Z,13.90
2022-10-15T15:58:51.081Z,14.00
2022-10-15T16:01:20.808Z,14.20
2022-10-15T16:03:49.309Z,14.30
2022-10-15T16:06:17.833Z,14.40
2022-10-15T16:08:46.331Z,14.60
2022-10-15T16:11:14.741Z,14.70
2022-10-15T16:13:43.944Z,14.80
2022-10-15T16:16:12.564Z,15.00
2022-10-15T16:18:41.079Z,15.20
2022-10-15T16:21:09.585Z,15.40
2022-10-15T16:23:39.136Z,15.80
2022-10-15T16:26:07.602Z,16.10
2022-10-15T16:28:36.041Z,16.20
2022-10-15T16:31:25.191Z,16.40
2022-10-15T16:33:56.902Z,16.60
2022-10-15T16:36:25.478Z,16.80
2022-10-15T16:38:54.495Z,16.90
2022-10-15T16:41:23.088Z,17.10
2022-10-15T16:43:51.463Z,17.20
2022-10-15T16:46:20.478Z,17.30
2022-10-15T16:48:57.550Z,17.30
2022-10-15T16:51:26.805Z,17.50
2022-10-15T16:53:58.332Z,17.60
2022-10-15T16:56:31.218Z,17.80
2022-10-15T16:58:59.881Z,18.00
2022-10-15T17:01:30.411Z,18.20
2022-10-15T17:04:01.855Z,18.20
2022-10-15T17:06:31.953Z,18.30
2022-10-15T17:09:04.783Z,18.50
2022-10-15T17:11:35.810Z,18.50
2022-10-15T17:14:13.254Z,18.70
2022-10-15T17:16:45.841Z,18.80
2022-10-15T17:19:16.054Z,18.90
2022-10-15T17:21:46.943Z,19.00
2022-10-15T17:24:17.751Z,19.20
2022-10-15T17:26:47.547Z,19.20
2022-10-15T17:29:21.057Z,19.40
2022-10-15T17:31:50.604Z,19.50
2022-10-15T17:34:19.356Z,19.60
2022-10-15T17:36:49.912Z,19.70
2022-10-15T17:39:21.259Z,19.90
2022-10-15T17:41:51.546Z,20.00
2022-10-15T17:44:20.604Z,20.10
2022-10-15T17:49:19.528Z,20.60
2022-10-15T17:51:48.420Z,20.90
2022-10-15T17:54:17.363Z,21.20
2022-10-15T17:56:45.889Z,21.60
2022-10-15T17:59:14.650Z,21.90
2022-10-15T18:02:01.102Z,22.10
2022-10-15T18:04:32.925Z,22.30
2022-10-15T18:07:01.392Z,22.40
2022-10-15T18:09:30.601Z,22.50
2022-10-15T18:12:01.355Z,22.60
2022-10-15T18:14:31.068Z,22.70
2022-10-15T18:16:59.986Z,22.80
2022-10-15T18:19:29.116Z,22.80
2022-10-15T18:21:57.907Z,22.90
2022-10-15T18:24:26.458Z,23.00
2022-10-15T18:26:55.122Z,23.10
2022-10-15T18:29:25.872Z,23.20
2022-10-15T18:31:57.685Z,23.30
2022-10-15T18:34:26.891Z,23.50
2022-10-15T18:36:55.517Z,23.80
2022-10-15T18:39:23.910Z,24.10
2022-10-15T18:41:52.474Z,24.00
2022-10-15T18:44:22.372Z,24.10
2022-10-15T18:46:51.693Z,24.30
2022-10-15T18:49:21.426Z,24.50
2022-10-15T18:51:53.751Z,24.40
2022-10-15T18:54:23.055Z,24.40
2022-10-15T18:56:53.290Z,24.30
2022-10-15T18:59:22.435Z,24.30
2022-10-15T19:01:51.719Z,24.30
2022-10-15T19:04:21.897Z,24.40
2022-10-15T19:06:53.398Z,24.60
2022-10-15T19:09:24.881Z,24.70
2022-10-15T19:11:55.830Z,24.80
2022-10-15T19:14:26.319Z,24.90
2022-10-15T19:16:55.125Z,25.00
2022-10-15T19:19:25.156Z,25.00
2022-10-15T19:21:54.373Z,25.10
2022-10-15T19:24:23.734Z,25.10
2022-10-15T19:26:53.436Z,25.20
2022-10-15T19:29:22.372Z,25.30
2022-10-15T19:31:53.035Z,25.40
2022-10-15T19:34:23.608Z,25.60
2022-10-15T19:36:52.619Z,25.50
2022-10-15T19:39:23.297Z,25.50
2022-10-15T19:41:52.828Z,25.70
2022-10-15T19:44:26.169Z,25.80
2022-10-15T19:46:56.952Z,25.90
2022-10-15T19:49:26.372Z,25.90
2022-10-15T19:51:55.643Z,25.90
2022-10-15T19:56:53.425Z,26.00
2022-10-15T19:59:21.809Z,26.00
2022-10-15T20:01:50.412Z,26.00
2022-10-15T20:04:18.867Z,25.90
2022-10-15T20:06:48.570Z,26.00
2022-10-15T20:09:17.060Z,26.10
2022-10-15T20:11:46.143Z,26.20
2022-10-15T20:14:14.580Z,26.20
2022-10-15T20:16:43.063Z,26.20
2022-10-15T20:19:13.367Z,26.20
2022-10-15T20:21:43.160Z,26.20
2022-10-15T20:24:11.720Z,26.40
2022-10-15T20:26:40.279Z,26.40
2022-10-15T20:29:09.768Z,26.50
2022-10-15T20:31:38.244Z,26.50
2022-10-15T20:34:06.653Z,26.50
2022-10-15T20:36:35.065Z,26.60
2022-10-15T20:39:03.657Z,26.60
2022-10-15T20:41:32.056Z,26.80
2022-10-15T20:44:00.854Z,26.80
2022-10-15T20:46:36.680Z,26.90
2022-10-15T20:51:42.945Z,27.00
2022-10-15T20:54:12.993Z,27.10
2022-10-15T20:56:42.089Z,27.10
2022-10-15T20:59:10.475Z,27.20
2022-10-15T21:01:39.311Z,27.30
2022-10-15T21:04:08.035Z,27.40
2022-10-15T21:06:36.461Z,27.30
2022-10-15T21:09:05.123Z,27.40
2022-10-15T21:11:34.064Z,27.50
2022-10-15T21:14:02.672Z,27.50
2022-10-15T21:19:00.474Z,27.40
2022-10-15T21:21:29.642Z,27.50
2022-10-15T21:24:00.004Z,27.50
2022-10-15T21:26:28.554Z,27.60
2022-10-15T21:29:01.470Z,27.50
2022-10-15T21:31:29.947Z,27.50
2022-10-15T21:33:58.567Z,27.50
2022-10-15T21:36:29.445Z,27.60
2022-10-15T21:39:04.671Z,27.50
2022-10-15T21:41:34.511Z,27.60
2022-10-15T21:44:04.667Z,27.60
2022-10-15T21:46:33.714Z,27.60
2022-10-15T21:49:04.288Z,27.70
2022-10-15T21:51:34.660Z,27.70
2022-10-15T21:54:05.007Z,27.70
2022-10-15T21:56:34.459Z,27.70
2022-10-15T21:59:03.107Z,27.80
2022-10-15T22:01:34.336Z,27.70
2022-10-15T22:04:10.739Z,27.70
2022-10-15T22:06:43.254Z,27.70
2022-10-15T22:09:12.721Z,27.60
2022-10-15T22:11:42.498Z,27.80
2022-10-15T22:14:14.966Z,27.80
2022-10-15T22:16:43.977Z,27.80
2022-10-15T22:19:17.151Z,27.80
2022-10-15T22:21:46.261Z,27.80
2022-10-15T22:24:18.059Z,27.80
2022-10-15T22:26:51.593Z,27.90
2022-10-15T22:29:23.042Z,27.90
2022-10-15T22:31:52.606Z,27.90
2022-10-15T22:34:22.167Z,28.00
2022-10-15T22:36:51.135Z,27.90
2022-10-15T22:39:20.298Z,27.90
2022-10-15T22:41:49.686Z,27.90
2022-10-15T22:44:20.848Z,28.00
2022-10-15T22:46:52.586Z,28.00
2022-10-15T22:49:22.996Z,27.90
2022-10-15T22:51:52.400Z,27.90
2022-10-15T22:54:24.216Z,27.90
2022-10-15T22:56:53.273Z,27.90
2022-10-15T22:59:22.019Z,27.90
2022-10-15T23:01:50.615Z,27.90
2022-10-15T23:04:19.071Z,27.90
2022-10-15T23:06:47.480Z,27.80
2022-10-15T23:09:18.426Z,27.80
2022-10-15T23:11:47.398Z,27.80
2022-10-15T23:14:17.507Z,27.80
2022-10-15T23:16:48.659Z,27.80
2022-10-15T23:19:22.821Z,27.80
2022-10-15T23:21:59.159Z,27.90
2022-10-15T23:24:29.784Z,27.90
2022-10-15T23:26:58.133Z,27.90
2022-10-15T23:29:27.582Z,27.80
2022-10-15T23:31:56.468Z,27.80
2022-10-15T23:34:27.022Z,27.80
2022-10-15T23:36:55.573Z,27.70
2022-10-15T23:39:26.932Z,27.70
2022-10-15T23:41:56.570Z,27.70
2022-10-15T23:44:29.265Z,27.70
2022-10-15T23:46:57.748Z,27.60
2022-10-15T23:49:26.155Z,27.60
2022-10-15T23:51:54.495Z,27.60
2022-10-15T23:54:23.122Z,27.60
2022-10-15T23:56:51.574Z,27.50
2022-10-15T23:59:22.043Z,27.50
